createdAt,value
2022-12-03T00:00:51.597Z,9.83
2022-12-03T00:03:19.479Z,10.37
2022-12-03T00:05:49.185Z,8.87
2022-12-03T00:08:17.408Z,9.23
2022-12-03T00:10:45.326Z,8.53
2022-12-03T00:13:13.118Z,9.67
2022-12-03T00:15:41.082Z,8.87
2022-12-03T00:18:08.950Z,8.83
2022-12-03T00:20:36.795Z,9.27
2022-12-03T00:23:04.758Z,9.33
2022-12-03T00:25:32.638Z,8.17
2022-12-03T00:28:00.451Z,9.20
2022-12-03T00:30:28.316Z,9.57
2022-12-03T00:32:56.134Z,8.53
2022-12-03T00:35:23.956Z,8.90
2022-12-03T00:37:51.818Z,9.80
2022-12-03T00:40:19.628Z,8.40
2022-12-03T00:42:47.609Z,9.10
2022-12-03T00:45:15.552Z,9.33
2022-12-03T00:47:43.406Z,8.93
2022-12-03T00:50:11.763Z,8.33
2022-12-03T00:52:39.664Z,8.63
2022-12-03T00:55:07.699Z,8.50
2022-12-03T00:57:35.623Z,9.80
2022-12-03T01:00:03.484Z,9.40
2022-12-03T01:02:31.261Z,8.77
2022-12-03T01:04:59.306Z,8.83
2022-12-03T01:07:27.281Z,9.73
2022-12-03T01:09:55.243Z,9.03
2022-12-03T01:12:23.115Z,8.90
2022-12-03T01:14:51.195Z,9.80
2022-12-03T01:17:19.368Z,8.60
2022-12-03T01:19:48.576Z,8.93
2022-12-03T01:22:16.631Z,9.17
2022-12-03T01:24:44.686Z,9.03
2022-12-03T01:27:12.553Z,9.30
2022-12-03T01:29:40.483Z,9.07
2022-12-03T01:32:20.760Z,8.73
2022-12-03T01:34:53.032Z,9.20
2022-12-03T01:37:22.658Z,9.10
2022-12-03T01:39:50.575Z,8.87
2022-12-03T01:42:32.780Z,9.03
2022-12-03T01:45:00.743Z,8.13
2022-12-03T01:47:32.896Z,8.83
2022-12-03T01:50:06.195Z,8.10
2022-12-03T01:52:35.737Z,7.80
2022-12-03T01:55:05.099Z,8.30
2022-12-03T01:57:42.590Z,8.47
2022-12-03T02:00:18.093Z,7.80
2022-12-03T02:02:46.018Z,8.10
2022-12-03T02:05:30.793Z,7.77
2022-12-03T02:07:58.941Z,7.40
2022-12-03T02:10:29.372Z,8.50
2022-12-03T02:13:07.687Z,8.30
2022-12-03T02:15:36.168Z,7.63
2022-12-03T02:18:03.965Z,8.27
2022-12-03T02:20:36.805Z,9.10
2022-12-03T02:23:11.053Z,8.03
2022-12-03T02:25:38.940Z,7.33
2022-12-03T02:28:07.361Z,7.97
2022-12-03T02:30:35.179Z,7.90
2022-12-03T02:33:03.003Z,8.17
2022-12-03T02:35:33.904Z,8.07
2022-12-03T02:38:09.202Z,7.37
2022-12-03T02:40:36.931Z,8.60
2022-12-03T02:43:04.660Z,7.73
2022-12-03T02:45:34.027Z,8.57
2022-12-03T02:48:26.214Z,7.47
2022-12-03T02:50:55.965Z,7.37
2022-12-03T02:53:26.860Z,7.03
2022-12-03T02:55:54.766Z,7.73
2022-12-03T02:58:22.939Z,7.53
2022-12-03T03:00:51.155Z,8.10
2022-12-03T03:03:19.017Z,7.63
2022-12-03T03:05:46.838Z,8.57
2022-12-03T03:08:14.715Z,8.30
2022-12-03T03:10:42.500Z,9.70
2022-12-03T03:13:12.181Z,9.43
2022-12-03T03:15:40.401Z,8.57
2022-12-03T03:18:08.379Z,8.63
2022-12-03T03:20:36.229Z,9.03
2022-12-03T03:23:23.420Z,8.90
2022-12-03T03:25:58.494Z,8.67
2022-12-03T03:28:26.677Z,8.40
2022-12-03T03:30:54.394Z,8.40
2022-12-03T03:33:22.216Z,8.90
2022-12-03T03:35:49.929Z,9.57
2022-12-03T03:38:18.929Z,8.90
2022-12-03T03:40:47.109Z,9.87
2022-12-03T03:43:14.941Z,9.27
2022-12-03T03:45:43.097Z,8.63
2022-12-03T03:48:11.037Z,7.80
2022-12-03T03:50:38.729Z,8.03
2022-12-03T03:53:06.813Z,8.13
2022-12-03T03:55:34.586Z,7.53
2022-12-03T03:58:02.339Z,7.90
2022-12-03T04:00:30.953Z,7.87
2022-12-03T04:02:58.737Z,7.73
2022-12-03T04:05:26.561Z,6.77
2022-12-03T04:07:54.364Z,7.53
2022-12-03T04:10:40.789Z,6.33
2022-12-03T04:13:08.585Z,6.77
2022-12-03T04:15:36.335Z,7.27
2022-12-03T04:18:22.641Z,7.43
2022-12-03T04:20:50.435Z,7.00
2022-12-03T04:23:18.195Z,7.43
2022-12-03T04:26:04.617Z,6.70
2022-12-03T04:28:50.570Z,7.57
2022-12-03T04:31:36.753Z,6.83
2022-12-03T04:34:23.087Z,6.87
2022-12-03T04:36:50.838Z,7.00
2022-12-03T04:39:18.547Z,6.90
2022-12-03T04:41:46.250Z,6.23
2022-12-03T04:44:32.690Z,7.17
2022-12-03T04:47:10.729Z,6.63
2022-12-03T04:49:40.222Z,6.83
2022-12-03T04:52:08.072Z,6.17
2022-12-03T04:54:35.893Z,6.83
2022-12-03T04:57:03.751Z,6.77
2022-12-03T04:59:31.571Z,7.30
2022-12-03T05:01:59.430Z,7.20
2022-12-03T05:04:27.354Z,7.40
2022-12-03T05:06:55.123Z,6.73
2022-12-03T05:09:22.854Z,6.20
2022-12-03T05:11:50.618Z,7.20
2022-12-03T05:14:18.578Z,6.17
2022-12-03T05:16:46.438Z,6.93
2022-12-03T05:19:14.229Z,6.67
2022-12-03T05:21:42.006Z,6.53
2022-12-03T05:24:09.839Z,7.17
2022-12-03T05:26:37.670Z,6.57
2022-12-03T05:29:05.370Z,6.73
2022-12-03T05:31:33.077Z,6.53
2022-12-03T05:34:00.816Z,6.30
2022-12-03T05:36:28.611Z,7.13
2022-12-03T05:38:56.383Z,6.53
2022-12-03T05:41:42.601Z,7.17
2022-12-03T05:44:10.456Z,6.43
2022-12-03T05:46:38.221Z,6.47
2022-12-03T05:49:06.028Z,6.70
2022-12-03T05:51:33.762Z,6.57
2022-12-03T05:54:01.469Z,6.90
2022-12-03T05:56:29.235Z,6.70
2022-12-03T05:58:56.969Z,7.00
2022-12-03T06:01:24.679Z,6.57
2022-12-03T06:03:52.593Z,7.40
2022-12-03T06:06:20.462Z,7.20
2022-12-03T06:08:48.177Z,7.90
2022-12-03T06:11:15.865Z,7.10
2022-12-03T06:13:43.622Z,7.20
2022-12-03T06:16:11.418Z,6.87
2022-12-03T06:18:39.210Z,6.40
2022-12-03T06:21:07.125Z,6.73
2022-12-03T06:23:34.884Z,6.63
2022-12-03T06:26:02.625Z,6.23
2022-12-03T06:28:30.371Z,6.23
2022-12-03T06:30:58.155Z,7.07
2022-12-03T06:33:25.975Z,6.60
2022-12-03T06:35:53.789Z,6.37
2022-12-03T06:38:21.740Z,6.57
2022-12-03T06:40:49.622Z,6.37
2022-12-03T06:43:17.368Z,7.00
2022-12-03T06:45:47.821Z,7.10
2022-12-03T06:48:15.941Z,7.33
2022-12-03T06:50:43.712Z,7.03
2022-12-03T06:53:11.438Z,7.90
2022-12-03T06:55:39.192Z,8.03
2022-12-03T06:58:06.916Z,8.63
2022-12-03T07:00:34.675Z,7.00
2022-12-03T07:03:02.426Z,7.93
2022-12-03T07:05:30.407Z,7.90
2022-12-03T07:07:58.156Z,7.97
2022-12-03T07:10:25.979Z,8.50
2022-12-03T07:12:53.665Z,7.87
2022-12-03T07:15:21.590Z,7.70
2022-12-03T07:17:49.303Z,8.00
2022-12-03T07:20:17.491Z,7.90
2022-12-03T07:22:45.188Z,8.47
2022-12-03T07:25:16.873Z,8.27
2022-12-03T07:27:49.105Z,9.10
2022-12-03T07:30:16.954Z,7.50
2022-12-03T07:32:44.678Z,7.93
2022-12-03T07:35:12.454Z,8.27
2022-12-03T07:37:40.256Z,8.67
2022-12-03T07:40:08.651Z,8.70
2022-12-03T07:42:36.387Z,8.53
2022-12-03T07:45:04.288Z,8.60
2022-12-03T07:47:32.187Z,9.13
2022-12-03T07:49:59.891Z,8.40
2022-12-03T07:52:27.667Z,7.10
2022-12-03T07:54:55.627Z,7.40
2022-12-03T07:57:23.623Z,7.63
2022-12-03T07:59:51.351Z,7.93
2022-12-03T08:02:21.673Z,6.50
2022-12-03T08:04:49.683Z,7.17
2022-12-03T08:07:17.405Z,6.77
2022-12-03T08:09:45.100Z,6.70
2022-12-03T08:12:22.596Z,6.60
2022-12-03T08:14:50.462Z,5.27
2022-12-03T08:17:19.661Z,7.03
2022-12-03T08:19:48.138Z,4.40
2022-12-03T08:22:16.244Z,6.70
2022-12-03T08:24:44.481Z,6.50
2022-12-03T08:27:17.984Z,5.80
2022-12-03T08:29:46.323Z,5.90
2022-12-03T08:32:14.226Z,5.70
2022-12-03T08:34:43.931Z,5.87
2022-12-03T08:37:19.375Z,5.60
2022-12-03T08:39:49.562Z,5.83
2022-12-03T08:42:37.064Z,5.53
2022-12-03T08:45:42.113Z,6.87
2022-12-03T08:48:33.824Z,6.43
2022-12-03T08:51:16.802Z,5.73
2022-12-03T08:53:49.260Z,6.73
2022-12-03T08:56:29.815Z,6.00
2022-12-03T08:59:19.299Z,7.20
2022-12-03T09:01:47.328Z,6.70
2022-12-03T09:04:28.725Z,7.17
2022-12-03T09:06:56.750Z,7.33
2022-12-03T09:09:24.817Z,6.90
2022-12-03T09:11:52.722Z,6.80
2022-12-03T09:14:23.774Z,6.03
2022-12-03T09:16:56.553Z,6.17
2022-12-03T09:19:25.512Z,6.63
2022-12-03T09:21:54.227Z,7.00
2022-12-03T09:24:22.168Z,7.13
2022-12-03T09:26:50.326Z,6.63
2022-12-03T09:29:18.409Z,6.97
2022-12-03T09:31:46.580Z,6.57
2022-12-03T09:34:14.618Z,6.13
2022-12-03T09:36:42.465Z,6.23
2022-12-03T09:39:10.427Z,7.87
2022-12-03T09:41:38.209Z,7.10
2022-12-03T09:44:08.552Z,7.07
2022-12-03T09:46:38.972Z,6.60
2022-12-03T09:49:12.307Z,6.70
2022-12-03T09:51:41.932Z,6.13
2022-12-03T09:54:11.310Z,6.20
2022-12-03T09:56:39.350Z,7.17
2022-12-03T09:59:12.916Z,7.13
2022-12-03T10:01:40.823Z,6.70
2022-12-03T10:04:08.927Z,7.53
2022-12-03T10:06:40.944Z,6.77
2022-12-03T10:09:13.178Z,6.90
2022-12-03T10:11:41.143Z,6.57
2022-12-03T10:14:10.164Z,6.20
2022-12-03T10:16:40.818Z,6.67
2022-12-03T10:19:10.850Z,7.13
2022-12-03T10:21:39.495Z,7.33
2022-12-03T10:24:27.119Z,6.83
2022-12-03T10:26:57.280Z,7.30
2022-12-03T10:29:33.945Z,6.97
2022-12-03T10:32:07.383Z,7.03
2022-12-03T10:34:36.715Z,7.13
2022-12-03T10:37:29.106Z,6.53
2022-12-03T10:40:00.751Z,6.70
2022-12-03T10:42:30.648Z,6.30
2022-12-03T10:45:15.984Z,6.90
2022-12-03T10:47:44.474Z,7.23
2022-12-03T10:50:19.951Z,6.63
2022-12-03T10:52:48.122Z,5.80
2022-12-03T10:55:16.156Z,6.17
2022-12-03T10:57:45.964Z,6.83
2022-12-03T11:00:19.098Z,6.07
2022-12-03T11:02:54.694Z,6.00
2022-12-03T11:05:28.208Z,6.33
2022-12-03T11:07:56.487Z,5.90
2022-12-03T11:10:24.482Z,6.33
2022-12-03T11:13:30.425Z,6.23
2022-12-03T11:15:58.964Z,6.00
2022-12-03T11:18:38.782Z,5.80
2022-12-03T11:21:13.318Z,5.40
2022-12-03T11:23:47.169Z,6.40
2022-12-03T11:26:19.250Z,6.33
2022-12-03T11:28:47.467Z,6.17
2022-12-03T11:31:35.005Z,6.17
2022-12-03T11:34:20.910Z,6.30
2022-12-03T11:37:10.558Z,6.10
2022-12-03T11:39:53.772Z,6.10
2022-12-03T11:42:27.769Z,6.70
2022-12-03T11:45:04.866Z,6.40
2022-12-03T11:47:43.876Z,6.17
2022-12-03T11:50:22.617Z,6.43
2022-12-03T11:52:55.892Z,6.63
2022-12-03T11:55:31.818Z,7.13
2022-12-03T11:58:01.151Z,7.40
2022-12-03T12:00:29.635Z,6.33
2022-12-03T12:02:58.445Z,6.00
2022-12-03T12:05:34.016Z,6.57
2022-12-03T12:08:02.874Z,6.43
2022-12-03T12:10:49.919Z,5.93
2022-12-03T12:13:51.663Z,5.77
2022-12-03T12:16:42.663Z,6.23
2022-12-03T12:19:32.969Z,5.90
2022-12-03T12:22:26.388Z,5.60
2022-12-03T12:25:04.317Z,6.40
2022-12-03T12:27:38.646Z,6.30
2022-12-03T12:30:26.880Z,6.50
2022-12-03T12:33:03.250Z,6.37
2022-12-03T12:35:33.514Z,6.43
2022-12-03T12:38:16.301Z,6.37
2022-12-03T12:40:46.727Z,6.80
2022-12-03T12:43:22.045Z,6.77
2022-12-03T12:45:52.629Z,6.47
2022-12-03T12:48:26.164Z,6.70
2022-12-03T12:51:15.019Z,6.13
2022-12-03T12:53:44.467Z,6.43
2022-12-03T12:56:25.920Z,6.97
2022-12-03T12:58:54.236Z,6.63
2022-12-03T13:01:27.783Z,6.40
2022-12-03T13:03:56.273Z,6.97
2022-12-03T13:06:28.649Z,6.77
2022-12-03T13:08:56.536Z,6.53
2022-12-03T13:11:46.784Z,6.83
2022-12-03T13:14:22.906Z,9.63
2022-12-03T13:16:52.896Z,7.70
2022-12-03T13:19:28.423Z,7.43
2022-12-03T13:22:01.778Z,7.80
2022-12-03T13:24:39.510Z,7.67
2022-12-03T13:27:33.007Z,8.07
2022-12-03T13:30:08.108Z,7.10
2022-12-03T13:32:38.169Z,7.27
2022-12-03T13:35:32.446Z,7.23
2022-12-03T13:38:00.700Z,7.43
2022-12-03T13:40:31.847Z,7.67
2022-12-03T13:43:00.167Z,7.63
2022-12-03T13:45:32.330Z,7.10
2022-12-03T13:48:01.879Z,7.30
2022-12-03T13:50:32.733Z,8.03
2022-12-03T13:53:02.948Z,6.97
2022-12-03T13:55:32.027Z,7.50
2022-12-03T13:58:00.148Z,6.87
2022-12-03T14:00:28.062Z,7.10
2022-12-03T14:02:55.963Z,6.97
2022-12-03T14:05:23.828Z,7.57
2022-12-03T14:07:51.694Z,8.40
2022-12-03T14:10:19.861Z,7.90
2022-12-03T14:12:47.841Z,7.40
2022-12-03T14:15:15.681Z,6.83
2022-12-03T14:17:43.637Z,7.67
2022-12-03T14:20:12.567Z,6.67
2022-12-03T14:22:40.522Z,7.33
2022-12-03T14:25:08.794Z,7.93
2022-12-03T14:27:36.686Z,7.53
2022-12-03T14:30:05.178Z,7.53
2022-12-03T14:32:33.193Z,8.13
2022-12-03T14:35:03.954Z,6.93
2022-12-03T14:37:36.178Z,7.13
2022-12-03T14:40:05.137Z,6.90
2022-12-03T14:42:33.104Z,6.80
2022-12-03T14:45:00.873Z,7.57
2022-12-03T14:47:28.883Z,7.50
2022-12-03T14:49:57.258Z,6.53
2022-12-03T14:52:25.204Z,6.97
2022-12-03T14:54:53.245Z,6.80
2022-12-03T14:57:21.337Z,6.30
2022-12-03T14:59:49.249Z,6.27
2022-12-03T15:02:17.216Z,7.40
2022-12-03T15:04:45.133Z,6.63
2022-12-03T15:07:13.109Z,6.93
2022-12-03T15:09:41.072Z,6.63
2022-12-03T15:12:09.094Z,7.33
2022-12-03T15:14:37.210Z,7.00
2022-12-03T15:17:05.198Z,6.93
2022-12-03T15:19:33.228Z,6.50
2022-12-03T15:22:01.181Z,6.60
2022-12-03T15:24:29.312Z,5.80
2022-12-03T15:26:57.418Z,6.80
2022-12-03T15:29:25.488Z,6.17
2022-12-03T15:31:53.499Z,6.13
2022-12-03T15:34:23.078Z,6.80
2022-12-03T15:36:51.779Z,6.33
2022-12-03T15:39:20.136Z,6.80
2022-12-03T15:41:48.396Z,6.87
2022-12-03T15:44:16.409Z,6.67
2022-12-03T15:46:44.460Z,6.93
2022-12-03T15:49:12.651Z,7.10
2022-12-03T15:51:40.727Z,7.10
2022-12-03T15:54:08.841Z,6.13
2022-12-03T15:56:38.618Z,6.53
2022-12-03T15:59:06.497Z,7.10
2022-12-03T16:01:34.574Z,6.17
2022-12-03T16:04:02.607Z,6.40
2022-12-03T16:06:30.655Z,6.20
2022-12-03T16:08:58.579Z,6.73
2022-12-03T16:11:26.570Z,6.77
2022-12-03T16:13:54.498Z,7.00
2022-12-03T16:16:22.679Z,6.20
2022-12-03T16:18:50.708Z,6.37
2022-12-03T16:21:23.382Z,6.97
2022-12-03T16:23:54.285Z,6.95
2022-12-03T16:26:22.471Z,7.00
2022-12-03T16:28:51.435Z,6.43
2022-12-03T16:31:20.279Z,6.90
2022-12-03T16:33:48.223Z,5.73
2022-12-03T16:36:16.429Z,7.40
2022-12-03T16:38:44.533Z,6.60
2022-12-03T16:41:12.556Z,5.97
2022-12-03T16:43:40.429Z,6.83
2022-12-03T16:46:22.095Z,6.73
2022-12-03T16:48:50.154Z,6.23
2022-12-03T16:51:18.289Z,6.80
2022-12-03T16:53:46.376Z,7.23
2022-12-03T16:56:14.237Z,7.10
2022-12-03T16:58:42.167Z,6.87
2022-12-03T17:01:10.377Z,7.07
2022-12-03T17:03:38.338Z,6.50
2022-12-03T17:06:06.491Z,6.60
2022-12-03T17:08:34.530Z,6.80
2022-12-03T17:11:02.584Z,6.37
2022-12-03T17:13:30.574Z,6.50
2022-12-03T17:15:58.499Z,7.50
2022-12-03T17:18:27.079Z,7.17
2022-12-03T17:20:54.899Z,7.43
2022-12-03T17:23:22.841Z,7.23
2022-12-03T17:25:50.772Z,7.30
2022-12-03T17:28:18.740Z,7.47
2022-12-03T17:30:47.045Z,7.87
2022-12-03T17:33:14.975Z,7.63
2022-12-03T17:35:43.460Z,7.30
2022-12-03T17:38:12.450Z,7.43
2022-12-03T17:40:40.616Z,7.03
2022-12-03T17:43:08.526Z,7.80
2022-12-03T17:45:38.121Z,7.80
2022-12-03T17:48:06.656Z,7.37
2022-12-03T17:50:34.589Z,7.30
2022-12-03T17:53:02.568Z,7.57
2022-12-03T17:55:38.306Z,7.80
2022-12-03T17:58:10.854Z,8.43
2022-12-03T18:00:38.907Z,8.00
2022-12-03T18:03:06.743Z,7.60
2022-12-03T18:05:34.617Z,7.97
2022-12-03T18:08:02.736Z,8.63
2022-12-03T18:10:30.803Z,8.07
2022-12-03T18:13:02.000Z,8.83
2022-12-03T18:15:30.372Z,8.33
2022-12-03T18:17:58.343Z,13.73
2022-12-03T18:20:26.413Z,8.73
2022-12-03T18:22:54.281Z,8.40
2022-12-03T18:25:22.178Z,8.03
2022-12-03T18:27:50.086Z,8.47
2022-12-03T18:30:18.217Z,8.67
2022-12-03T18:32:46.291Z,8.47
2022-12-03T18:35:14.229Z,8.20
2022-12-03T18:37:42.257Z,8.07
2022-12-03T18:40:23.335Z,7.53
2022-12-03T18:42:51.293Z,8.37
2022-12-03T18:45:19.292Z,7.90
2022-12-03T18:47:47.476Z,8.40
2022-12-03T18:50:15.948Z,8.03
2022-12-03T18:52:43.849Z,9.33
2022-12-03T18:55:16.265Z,7.60
2022-12-03T18:57:44.276Z,8.23
2022-12-03T19:00:13.866Z,7.67
2022-12-03T19:05:30.390Z,8.30
2022-12-03T19:07:58.470Z,8.07
2022-12-03T19:10:26.496Z,9.93
2022-12-03T19:12:54.486Z,7.93
2022-12-03T19:15:22.416Z,8.50
2022-12-03T19:17:50.749Z,7.87
2022-12-03T19:20:18.746Z,7.87
2022-12-03T19:22:46.528Z,7.97
2022-12-03T19:25:14.527Z,7.63
2022-12-03T19:27:42.417Z,8.00
2022-12-03T19:30:11.440Z,7.90
2022-12-03T19:32:39.353Z,8.13
2022-12-03T19:35:08.737Z,8.30
2022-12-03T19:37:36.500Z,7.80
2022-12-03T19:40:04.534Z,8.03
2022-12-03T19:42:32.510Z,7.87
2022-12-03T19:45:00.432Z,8.73
2022-12-03T19:47:28.261Z,8.43
2022-12-03T19:49:56.587Z,8.57
2022-12-03T19:52:24.632Z,8.07
2022-12-03T19:54:52.549Z,8.53
2022-12-03T19:57:23.463Z,8.33
2022-12-03T19:59:52.090Z,8.17
2022-12-03T20:02:20.277Z,8.20
2022-12-03T20:04:48.293Z,8.30
2022-12-03T20:07:16.132Z,8.30
2022-12-03T20:09:44.101Z,8.40
2022-12-03T20:12:11.964Z,9.13
2022-12-03T20:14:39.808Z,8.77
2022-12-03T20:17:07.780Z,7.53
2022-12-03T20:19:35.716Z,8.43
2022-12-03T20:22:03.605Z,9.77
2022-12-03T20:24:31.608Z,8.93
2022-12-03T20:26:59.732Z,8.83
2022-12-03T20:29:27.589Z,9.97
2022-12-03T20:31:55.498Z,8.93
2022-12-03T20:34:23.379Z,8.40
2022-12-03T20:36:51.239Z,9.23
2022-12-03T20:39:19.168Z,8.30
2022-12-03T20:41:47.063Z,8.90
2022-12-03T20:44:15.125Z,8.30
2022-12-03T20:46:42.988Z,9.23
2022-12-03T20:49:10.963Z,8.97
2022-12-03T20:51:38.955Z,8.80
2022-12-03T20:54:07.078Z,9.77
2022-12-03T20:56:36.403Z,8.70
2022-12-03T20:59:06.248Z,9.33
2022-12-03T21:01:34.423Z,14.13
2022-12-03T21:04:02.742Z,9.10
2022-12-03T21:06:33.339Z,9.13
2022-12-03T21:09:02.177Z,8.80
2022-12-03T21:11:32.160Z,8.83
2022-12-03T21:14:00.379Z,10.07
2022-12-03T21:16:59.192Z,8.63
2022-12-03T21:19:20.125Z,7.83
2022-12-03T21:21:48.615Z,8.80
2022-12-03T21:24:16.564Z,8.67
2022-12-03T21:26:44.728Z,8.07
2022-12-03T21:29:12.732Z,9.17
2022-12-03T21:31:41.050Z,9.47
2022-12-03T21:34:09.813Z,7.93
2022-12-03T21:36:37.873Z,10.00
2022-12-03T21:39:06.551Z,8.90
2022-12-03T21:41:36.355Z,9.13
2022-12-03T21:44:04.443Z,9.13
2022-12-03T21:47:10.719Z,9.30
2022-12-03T21:49:21.561Z,9.03
2022-12-03T21:51:49.767Z,9.33
2022-12-03T21:54:17.637Z,8.90
2022-12-03T21:56:45.494Z,9.47
2022-12-03T21:59:13.437Z,8.43
2022-12-03T22:01:45.680Z,10.00
2022-12-03T22:04:15.168Z,9.13
2022-12-03T22:06:43.190Z,8.33
2022-12-03T22:09:11.442Z,8.70
2022-12-03T22:11:39.342Z,9.97
2022-12-03T22:14:08.282Z,9.37
2022-12-03T22:16:36.549Z,9.47
2022-12-03T22:19:05.039Z,9.90
2022-12-03T22:21:33.138Z,12.23
2022-12-03T22:24:01.224Z,10.13
2022-12-03T22:26:29.212Z,9.80
2022-12-03T22:28:57.286Z,9.97
2022-12-03T22:31:25.316Z,9.53
2022-12-03T22:33:53.250Z,9.50
2022-12-03T22:36:22.074Z,9.73
2022-12-03T22:38:51.197Z,8.70
2022-12-03T22:41:19.397Z,10.93
2022-12-03T22:43:47.884Z,9.83
2022-12-03T22:46:16.128Z,8.73
2022-12-03T22:48:44.804Z,9.50
2022-12-03T22:51:20.779Z,11.32
2022-12-03T22:53:48.853Z,9.60
2022-12-03T22:56:18.546Z,9.43
2022-12-03T22:58:46.417Z,10.63
2022-12-03T23:01:22.645Z,10.10
2022-12-03T23:03:50.810Z,9.23
2022-12-03T23:06:19.070Z,10.73
2022-12-03T23:08:47.152Z,10.50
2022-12-03T23:11:15.038Z,9.13
2022-12-03T23:13:43.008Z,10.40
2022-12-03T23:16:21.965Z,8.97
2022-12-03T23:18:50.057Z,10.27
2022-12-03T23:21:21.604Z,10.43
2022-12-03T23:23:53.321Z,9.10
2022-12-03T23:26:21.194Z,10.13
2022-12-03T23:28:49.184Z,10.40
2022-12-03T23:31:24.410Z,10.30
2022-12-03T23:33:52.523Z,9.90
2022-12-03T23:36:20.685Z,9.67
2022-12-03T23:38:48.559Z,9.97
2022-12-03T23:41:17.940Z,10.37
2022-12-03T23:43:45.860Z,9.33
2022-12-03T23:46:24.280Z,10.13
2022-12-03T23:48:52.268Z,10.13
2022-12-03T23:51:25.172Z,9.07
2022-12-03T23:53:54.206Z,9.57
2022-12-03T23:56:27.895Z,10.03
2022-12-03T23:58:55.801Z,9.90
